Time;durP1;ratioP1;P1;durP2;ratioP2;P2;SDS_P1;SDS_P2;PMS_P1;PMS_P2;Temp;Humidity;BMP_temperature;BMP_pressure;BME280_temperature;BME280_humidity;BME280_pressure;Samples;Min_cycle;Max_cycle;Signal;HPM_P1;HPM_P2
2023/03/03 00:01:34;;;;;;;15.55;8.38;;;2.20;99.90;;;;;;5058948;28;20132;-76
2023/03/03 00:04:00;;;;;;;15.23;8.52;;;2.10;99.90;;;;;;5059474;28;20068;-76
2023/03/03 00:06:25;;;;;;;13.90;7.90;;;2.10;99.90;;;;;;5053112;28;20476;-76
2023/03/03 00:08:51;;;;;;;17.08;8.82;;;2.10;99.90;;;;;;5072169;28;20052;-76
2023/03/03 00:11:17;;;;;;;17.58;8.88;;;2.10;99.90;;;;;;5073173;28;20052;-77
2023/03/03 00:13:46;;;;;;;15.30;8.85;;;2.10;99.90;;;;;;5071583;28;20516;-76
2023/03/03 00:16:16;;;;;;;14.48;7.60;;;2.10;99.90;;;;;;5064644;28;20037;-77
2023/03/03 00:18:45;;;;;;;15.35;8.80;;;2.10;99.90;;;;;;5042684;28;20079;-76
2023/03/03 00:21:25;;;;;;;16.58;8.20;;;2.10;99.90;;;;;;5076251;28;20052;-76
2023/03/03 00:23:51;;;;;;;18.52;8.18;;;2.10;99.90;;;;;;5059288;28;20073;-77
2023/03/03 00:26:37;;;;;;;14.13;8.48;;;2.10;99.90;;;;;;5071462;28;20059;-76
2023/03/03 00:29:27;;;;;;;14.55;7.82;;;2.10;99.90;;;;;;5058013;28;20045;-76
2023/03/03 00:31:53;;;;;;;15.75;8.45;;;2.10;99.90;;;;;;5054534;28;20047;-76
2023/03/03 00:34:27;;;;;;;13.70;7.82;;;2.30;99.90;;;;;;5050737;28;20052;-77
2023/03/03 00:36:55;;;;;;;16.88;8.48;;;2.20;99.90;;;;;;5048880;28;20044;-76
2023/03/03 00:39:35;;;;;;;15.98;7.78;;;2.20;99.90;;;;;;5067498;28;20059;-76
2023/03/03 00:42:04;;;;;;;16.08;8.82;;;2.20;99.90;;;;;;5064185;28;21969;-76
2023/03/03 00:44:41;;;;;;;14.20;8.25;;;2.30;99.90;;;;;;5063481;28;20052;-76
2023/03/03 00:47:28;;;;;;;15.10;8.93;;;2.90;99.90;;;;;;5065924;28;20056;-76
2023/03/03 00:50:06;;;;;;;15.10;8.70;;;2.10;99.90;;;;;;5065092;28;20048;-76
2023/03/03 00:53:12;;;;;;;18.13;9.63;;;2.10;99.90;;;;;;5060327;28;20080;-77
2023/03/03 00:55:39;;;;;;;16.05;8.90;;;2.00;99.90;;;;;;5057030;28;20057;-77
2023/03/03 00:58:05;;;;;;;14.43;8.18;;;2.10;99.90;;;;;;5058453;28;20590;-77
2023/03/03 01:00:31;;;;;;;18.48;8.63;;;1.90;99.90;;;;;;5061281;28;20450;-77
2023/03/03 01:03:01;;;;;;;14.38;7.72;;;1.90;99.90;;;;;;5062364;28;20429;-76
2023/03/03 01:05:26;;;;;;;13.65;7.78;;;1.90;99.90;;;;;;5073226;28;20499;-76
2023/03/03 01:07:52;;;;;;;13.38;7.28;;;1.90;99.90;;;;;;5058671;28;20064;-76
2023/03/03 01:10:18;;;;;;;14.68;8.00;;;1.90;99.90;;;;;;5042459;28;20076;-76
2023/03/03 01:12:44;;;;;;;15.63;8.10;;;1.90;99.90;;;;;;5042484;28;20043;-76
2023/03/03 01:15:11;;;;;;;15.10;8.23;;;1.90;99.90;;;;;;5077950;28;20057;-76
2023/03/03 01:17:38;;;;;;;23.65;9.70;;;1.90;99.90;;;;;;5061611;28;20514;-76
2023/03/03 01:20:06;;;;;;;14.55;7.90;;;1.90;99.90;;;;;;5048687;28;20040;-76
2023/03/03 01:22:32;;;;;;;13.98;8.13;;;1.90;99.90;;;;;;5052894;28;20047;-76
2023/03/03 01:24:58;;;;;;;14.80;7.68;;;1.90;99.90;;;;;;5040345;28;20072;-76
2023/03/03 01:27:23;;;;;;;17.27;8.48;;;1.90;99.90;;;;;;5058498;28;20884;-77
2023/03/03 01:29:49;;;;;;;15.48;7.65;;;2.00;99.90;;;;;;5041431;28;20040;-76
2023/03/03 01:32:15;;;;;;;15.80;8.07;;;2.10;99.90;;;;;;5052921;28;20070;-76
2023/03/03 01:34:41;;;;;;;16.52;8.63;;;1.90;99.90;;;;;;5042175;28;20085;-76
2023/03/03 01:37:07;;;;;;;16.33;8.43;;;2.10;99.90;;;;;;5061724;28;20063;-76
2023/03/03 01:39:32;;;;;;;18.35;9.13;;;2.00;99.90;;;;;;5051410;28;20316;-76
2023/03/03 01:41:58;;;;;;;25.30;8.98;;;2.00;99.90;;;;;;5037676;28;20044;-76
2023/03/03 01:44:24;;;;;;;19.38;8.85;;;1.90;99.90;;;;;;5076959;28;20581;-76
2023/03/03 01:46:54;;;;;;;22.35;8.90;;;1.90;99.90;;;;;;5063563;28;20041;-76
2023/03/03 01:49:22;;;;;;;17.63;7.70;;;1.90;99.90;;;;;;5042835;28;20044;-77
2023/03/03 01:51:55;;;;;;;32.88;8.98;;;1.90;99.90;;;;;;5073348;28;20049;-76
2023/03/03 01:54:28;;;;;;;19.77;8.38;;;1.80;99.90;;;;;;5056964;28;20048;-77
2023/03/03 01:56:58;;;;;;;13.82;7.63;;;1.90;99.90;;;;;;5058595;28;20037;-76
2023/03/03 01:59:29;;;;;;;19.45;7.93;;;2.10;99.90;;;;;;5059305;28;20041;-77
2023/03/03 02:01:55;;;;;;;17.73;8.30;;;2.00;99.90;;;;;;5075249;28;20060;-76
2023/03/03 02:04:21;;;;;;;14.93;7.75;;;1.90;99.90;;;;;;5053966;28;20063;-76
2023/03/03 02:06:55;;;;;;;14.68;7.57;;;2.20;99.90;;;;;;5048839;28;20104;-76
2023/03/03 02:09:46;;;;;;;14.23;7.45;;;2.00;99.90;;;;;;5041538;28;20051;-77
2023/03/03 02:12:16;;;;;;;18.13;7.47;;;2.00;99.90;;;;;;5070220;28;20131;-76
2023/03/03 02:14:41;;;;;;;18.67;7.63;;;2.00;99.90;;;;;;5057610;28;20045;-76
2023/03/03 02:17:07;;;;;;;15.43;6.85;;;2.00;99.90;;;;;;5040173;28;20052;-76
2023/03/03 02:19:51;;;;;;;25.08;7.75;;;2.00;99.90;;;;;;5056991;28;20061;-76
2023/03/03 02:22:23;;;;;;;15.18;6.53;;;2.00;99.90;;;;;;5071507;28;20052;-76
2023/03/03 02:24:53;;;;;;;20.20;7.75;;;2.00;99.90;;;;;;5056441;28;20044;-76
2023/03/03 02:27:19;;;;;;;27.55;6.95;;;2.00;99.90;;;;;;5057898;28;20053;-77
2023/03/03 02:29:45;;;;;;;14.93;6.60;;;2.00;99.90;;;;;;5040163;28;20112;-76
2023/03/03 02:32:11;;;;;;;18.85;6.60;;;2.00;99.90;;;;;;5067923;28;20041;-76
2023/03/03 02:34:48;;;;;;;24.58;7.30;;;2.10;99.90;;;;;;5072950;28;20053;-76
2023/03/03 02:37:14;;;;;;;22.65;6.95;;;2.00;99.90;;;;;;5057529;28;20381;-77
2023/03/03 02:39:40;;;;;;;20.67;6.32;;;2.00;99.90;;;;;;5063417;28;20079;-77
2023/03/03 02:42:13;;;;;;;16.52;5.47;;;2.00;99.90;;;;;;5061193;28;20048;-76
2023/03/03 02:44:39;;;;;;;10.40;5.38;;;2.00;99.90;;;;;;5059219;28;20053;-76
2023/03/03 02:47:05;;;;;;;12.15;5.70;;;2.00;99.90;;;;;;5072467;28;20132;-76
2023/03/03 02:49:34;;;;;;;21.52;6.88;;;2.10;99.90;;;;;;5048489;28;20400;-76
2023/03/03 02:52:02;;;;;;;18.90;7.03;;;2.00;99.90;;;;;;5067125;28;20048;-76
2023/03/03 02:54:30;;;;;;;14.93;5.72;;;2.00;99.90;;;;;;5055549;28;20052;-76
2023/03/03 02:56:56;;;;;;;12.45;5.30;;;2.00;99.90;;;;;;5059321;28;20126;-76
2023/03/03 02:59:22;;;;;;;14.98;6.00;;;2.00;99.90;;;;;;5068816;28;20528;-76
2023/03/03 03:01:48;;;;;;;21.40;7.28;;;2.00;99.90;;;;;;5048842;28;20048;-76
2023/03/03 03:04:20;;;;;;;19.70;5.85;;;2.00;99.90;;;;;;5058767;28;20061;-76
2023/03/03 03:06:46;;;;;;;15.88;5.00;;;2.00;99.90;;;;;;5075433;28;20052;-76
2023/03/03 03:09:14;;;;;;;32.53;6.82;;;2.00;99.90;;;;;;5060779;28;20044;-77
2023/03/03 03:11:40;;;;;;;12.40;5.05;;;2.00;99.90;;;;;;5065953;28;20104;-76
2023/03/03 03:14:07;;;;;;;19.40;5.95;;;2.00;99.90;;;;;;5057544;28;20075;-77
2023/03/03 03:16:33;;;;;;;16.75;5.88;;;1.90;99.90;;;;;;5045837;28;20037;-77
2023/03/03 03:19:00;;;;;;;13.75;5.10;;;1.90;99.90;;;;;;5074367;28;20096;-76
2023/03/03 03:21:25;;;;;;;19.00;6.55;;;1.90;99.90;;;;;;5058839;28;20040;-76
2023/03/03 03:23:51;;;;;;;18.95;5.30;;;1.90;99.90;;;;;;5042253;28;20045;-77
2023/03/03 03:26:19;;;;;;;20.75;6.05;;;2.00;99.90;;;;;;5056901;28;20107;-76
2023/03/03 03:28:46;;;;;;;20.33;5.47;;;1.90;99.90;;;;;;5057096;28;20044;-77
2023/03/03 03:31:12;;;;;;;16.17;5.00;;;2.00;99.90;;;;;;5069358;28;20052;-77
2023/03/03 03:33:38;;;;;;;20.65;6.07;;;1.90;99.90;;;;;;5067807;28;20088;-77
2023/03/03 03:36:05;;;;;;;21.88;5.68;;;1.90;99.90;;;;;;5043334;28;20037;-77
2023/03/03 03:38:31;;;;;;;18.40;5.05;;;1.90;99.90;;;;;;5060115;28;20053;-77
2023/03/03 03:40:57;;;;;;;19.33;5.13;;;2.00;99.90;;;;;;5059575;28;20048;-77
2023/03/03 03:43:24;;;;;;;17.50;5.40;;;1.90;99.90;;;;;;5060816;28;20605;-77
2023/03/03 03:45:49;;;;;;;25.27;6.40;;;2.00;99.90;;;;;;5059394;28;20049;-77
2023/03/03 03:48:18;;;;;;;22.40;5.57;;;2.00;99.90;;;;;;5061370;28;20117;-77
2023/03/03 03:50:44;;;;;;;30.83;5.75;;;2.10;99.90;;;;;;5051679;28;20079;-77
2023/03/03 03:53:10;;;;;;;20.85;6.10;;;2.20;99.90;;;;;;5072018;28;20055;-77
2023/03/03 03:55:35;;;;;;;29.63;5.97;;;2.00;99.90;;;;;;5043323;28;20048;-76
2023/03/03 03:58:01;;;;;;;22.55;6.50;;;2.00;99.90;;;;;;5060196;28;20049;-77
2023/03/03 04:00:27;;;;;;;24.52;7.10;;;2.00;99.90;;;;;;5065003;28;20048;-77
2023/03/03 04:02:53;;;;;;;33.97;6.90;;;2.00;99.90;;;;;;5058681;28;20045;-77
2023/03/03 04:05:18;;;;;;;23.95;6.70;;;2.10;99.90;;;;;;5060441;28;20049;-76
2023/03/03 04:07:44;;;;;;;44.10;8.95;;;2.10;99.90;;;;;;5075577;28;20045;-77
2023/03/03 04:10:10;;;;;;;31.75;7.00;;;2.10;99.90;;;;;;5060122;28;20465;-77
2023/03/03 04:12:39;;;;;;;50.63;8.60;;;2.10;99.90;;;;;;5059326;28;20099;-77
2023/03/03 04:15:10;;;;;;;31.60;7.80;;;2.10;99.90;;;;;;5048019;28;20052;-76
2023/03/03 04:17:36;;;;;;;30.85;7.88;;;2.10;99.90;;;;;;5047979;28;20049;-77
2023/03/03 04:20:02;;;;;;;26.00;8.45;;;2.10;99.90;;;;;;5058633;28;20045;-77
2023/03/03 04:22:32;;;;;;;29.98;6.50;;;2.10;99.90;;;;;;5043156;28;20045;-77
2023/03/03 04:25:04;;;;;;;36.20;7.78;;;2.10;99.90;;;;;;5058512;28;20091;-77
2023/03/03 04:27:34;;;;;;;31.92;7.00;;;2.10;99.90;;;;;;5059434;28;20088;-77
2023/03/03 04:30:00;;;;;;;33.90;8.95;;;2.10;99.90;;;;;;5044026;28;20056;-77
2023/03/03 04:32:26;;;;;;;27.00;7.35;;;2.00;99.90;;;;;;5061789;28;20048;-77
2023/03/03 04:34:52;;;;;;;35.50;8.32;;;2.10;99.90;;;;;;5050763;28;20049;-77
2023/03/03 04:37:18;;;;;;;45.22;7.90;;;2.10;99.90;;;;;;5045790;28;20094;-77
2023/03/03 04:39:44;;;;;;;41.50;8.77;;;2.20;99.90;;;;;;5067978;28;20049;-77
2023/03/03 04:42:10;;;;;;;34.50;8.57;;;2.10;99.90;;;;;;5061010;28;20638;-77
2023/03/03 04:44:36;;;;;;;30.75;8.85;;;2.00;99.90;;;;;;5059802;28;20060;-77
2023/03/03 04:47:02;;;;;;;50.38;9.55;;;2.10;99.90;;;;;;5058076;28;20049;-76
2023/03/03 04:49:28;;;;;;;44.92;7.97;;;2.30;99.90;;;;;;5058748;28;20048;-76
2023/03/03 04:51:53;;;;;;;25.20;7.38;;;2.00;99.90;;;;;;5059745;28;20072;-76
2023/03/03 04:54:19;;;;;;;25.60;7.60;;;2.10;99.90;;;;;;5030413;28;20453;-77
2023/03/03 04:56:45;;;;;;;40.42;8.07;;;2.10;99.90;;;;;;5072880;28;20041;-76
2023/03/03 04:59:10;;;;;;;44.42;8.85;;;2.10;99.90;;;;;;5057815;28;20045;-76
2023/03/03 05:01:36;;;;;;;38.63;8.05;;;2.10;99.90;;;;;;5067990;28;20083;-76
2023/03/03 05:04:02;;;;;;;39.97;8.10;;;2.10;99.90;;;;;;5058145;28;20052;-76
2023/03/03 05:06:28;;;;;;;47.55;9.82;;;2.10;99.90;;;;;;5067300;28;20079;-76
2023/03/03 05:08:53;;;;;;;36.38;8.10;;;2.10;99.90;;;;;;5058984;28;20049;-76
2023/03/03 05:11:19;;;;;;;39.03;7.97;;;2.10;99.90;;;;;;5057742;28;20053;-77
2023/03/03 05:13:45;;;;;;;42.88;8.35;;;2.10;99.90;;;;;;5067572;28;20112;-77
2023/03/03 05:16:10;;;;;;;42.05;8.43;;;2.10;99.90;;;;;;5058590;28;20087;-77
2023/03/03 05:18:36;;;;;;;27.42;7.70;;;2.10;99.90;;;;;;5042824;28;20049;-77
2023/03/03 05:21:02;;;;;;;17.02;6.10;;;2.20;99.90;;;;;;5074796;28;20052;-77
2023/03/03 05:23:28;;;;;;;20.45;7.18;;;2.10;99.90;;;;;;5041217;28;20037;-77
2023/03/03 05:25:54;;;;;;;33.72;7.35;;;2.10;99.90;;;;;;5041547;28;20047;-77
2023/03/03 05:28:20;;;;;;;34.05;7.95;;;2.10;99.90;;;;;;5070903;28;20051;-77
2023/03/03 05:30:45;;;;;;;22.55;6.57;;;2.50;99.90;;;;;;5059375;28;20098;-77
2023/03/03 05:33:17;;;;;;;30.23;8.15;;;2.10;99.90;;;;;;5078567;28;20062;-77
2023/03/03 05:35:43;;;;;;;23.80;7.70;;;2.10;99.90;;;;;;5066851;28;20041;-77
2023/03/03 05:38:09;;;;;;;34.38;7.60;;;2.10;99.90;;;;;;5065896;28;20059;-77
2023/03/03 05:40:35;;;;;;;18.27;6.60;;;2.20;99.90;;;;;;5072160;28;20175;-77
2023/03/03 05:43:01;;;;;;;46.45;7.95;;;2.30;99.90;;;;;;5058377;28;20087;-77
2023/03/03 05:45:27;;;;;;;39.90;7.20;;;2.20;99.90;;;;;;5057242;28;20053;-77
2023/03/03 05:47:53;;;;;;;38.95;7.30;;;2.20;99.90;;;;;;5074441;28;20511;-77
2023/03/03 05:50:23;;;;;;;21.23;6.82;;;2.20;99.90;;;;;;5049325;28;20094;-77
2023/03/03 05:52:49;;;;;;;28.67;6.82;;;2.10;99.90;;;;;;5055484;28;20072;-77
2023/03/03 05:55:15;;;;;;;16.95;5.60;;;2.30;99.90;;;;;;5057380;28;20065;-77
2023/03/03 05:57:41;;;;;;;16.83;6.22;;;2.50;99.90;;;;;;5041334;28;20052;-77
2023/03/03 06:00:07;;;;;;;20.20;7.38;;;2.20;99.90;;;;;;5057367;28;20045;-77
2023/03/03 06:02:34;;;;;;;19.92;6.75;;;2.10;99.90;;;;;;5065083;28;20048;-77
2023/03/03 06:05:00;;;;;;;19.08;6.68;;;2.10;99.90;;;;;;5069160;28;20045;-77
2023/03/03 06:07:26;;;;;;;18.13;5.80;;;2.10;99.90;;;;;;5056574;28;20055;-78
2023/03/03 06:09:51;;;;;;;17.25;6.57;;;2.10;99.90;;;;;;5058232;28;20044;-77
2023/03/03 06:12:17;;;;;;;17.05;6.05;;;2.10;99.90;;;;;;5040328;28;20051;-77
2023/03/03 06:14:43;;;;;;;14.88;6.65;;;2.20;99.90;;;;;;5057333;28;20051;-77
2023/03/03 06:17:09;;;;;;;11.88;5.57;;;2.20;99.90;;;;;;5040789;28;20428;-77
2023/03/03 06:19:36;;;;;;;15.50;6.00;;;2.20;99.90;;;;;;5040322;28;20041;-77
2023/03/03 06:22:01;;;;;;;17.58;6.50;;;2.20;99.90;;;;;;5045175;28;20051;-77
2023/03/03 06:24:29;;;;;;;19.65;6.68;;;2.30;99.90;;;;;;5055317;28;20045;-77
2023/03/03 06:26:58;;;;;;;19.17;6.85;;;2.30;99.90;;;;;;5077338;28;20123;-77
2023/03/03 06:29:24;;;;;;;17.40;6.65;;;2.10;99.90;;;;;;5060917;28;20060;-77
2023/03/03 06:31:50;;;;;;;23.98;6.70;;;2.10;99.90;;;;;;5064748;28;20052;-77
2023/03/03 06:34:16;;;;;;;22.10;7.50;;;2.10;99.90;;;;;;5054045;28;20140;-77
2023/03/03 06:36:41;;;;;;;21.77;6.70;;;2.50;99.90;;;;;;5056258;28;20493;-77
2023/03/03 06:39:07;;;;;;;17.33;6.25;;;2.10;99.90;;;;;;5044867;28;20049;-77
2023/03/03 06:41:33;;;;;;;17.40;7.10;;;2.00;99.90;;;;;;5039451;28;20064;-77
2023/03/03 06:43:59;;;;;;;16.17;6.38;;;2.00;99.90;;;;;;5057455;28;20053;-77
2023/03/03 06:46:25;;;;;;;16.50;6.95;;;1.90;99.90;;;;;;5064921;28;20045;-77
2023/03/03 06:48:51;;;;;;;14.13;6.55;;;2.10;99.90;;;;;;5064388;28;20040;-77
2023/03/03 06:51:25;;;;;;;12.65;6.38;;;1.90;99.90;;;;;;5046140;28;20127;-78
2023/03/03 06:53:54;;;;;;;12.40;6.32;;;1.90;99.90;;;;;;5065754;28;20048;-78
2023/03/03 06:56:21;;;;;;;14.60;6.63;;;1.90;99.90;;;;;;5043004;28;20055;-77
2023/03/03 06:58:47;;;;;;;13.82;5.85;;;2.10;99.90;;;;;;5066613;28;20091;-78
2023/03/03 07:01:16;;;;;;;12.25;6.13;;;2.10;99.90;;;;;;5044544;28;20036;-77
2023/03/03 07:03:42;;;;;;;11.45;5.63;;;2.00;99.90;;;;;;5041401;28;20101;-77
2023/03/03 07:06:26;;;;;;;12.57;6.22;;;2.00;99.90;;;;;;5059989;28;20037;-76
2023/03/03 07:08:53;;;;;;;12.98;6.10;;;2.20;99.90;;;;;;5048622;28;20057;-77
2023/03/03 07:11:22;;;;;;;13.93;6.28;;;2.10;99.90;;;;;;5039404;28;20052;-76
2023/03/03 07:13:53;;;;;;;13.60;6.72;;;2.10;99.90;;;;;;5057650;28;20463;-76
2023/03/03 07:16:25;;;;;;;14.32;6.90;;;2.10;99.90;;;;;;5057710;28;20049;-76
2023/03/03 07:19:00;;;;;;;15.82;6.88;;;2.20;99.90;;;;;;5077140;28;20117;-76
2023/03/03 07:21:33;;;;;;;13.95;7.47;;;2.40;99.90;;;;;;5058720;28;20049;-76
2023/03/03 07:24:07;;;;;;;18.63;7.53;;;2.20;99.90;;;;;;5055164;28;20049;-76
2023/03/03 07:26:33;;;;;;;17.67;7.63;;;2.20;99.90;;;;;;5040619;28;20045;-75
2023/03/03 07:29:23;;;;;;;19.55;7.88;;;2.40;99.90;;;;;;5054951;28;20049;-76
2023/03/03 07:31:49;;;;;;;18.67;8.18;;;2.30;99.90;;;;;;5044133;28;20037;-75
2023/03/03 07:34:37;;;;;;;22.85;8.52;;;2.80;99.90;;;;;;5056310;28;20052;-76
2023/03/03 07:37:30;;;;;;;15.07;7.15;;;2.40;99.90;;;;;;5055162;28;20571;-76
2023/03/03 07:39:57;;;;;;;17.77;7.15;;;2.40;99.90;;;;;;5054409;28;20080;-76
2023/03/03 07:42:37;;;;;;;23.00;7.18;;;2.40;99.90;;;;;;5055535;28;20063;-76
2023/03/03 07:45:28;;;;;;;22.58;7.32;;;2.40;99.90;;;;;;5066645;28;20045;-76
2023/03/03 07:48:18;;;;;;;18.25;8.05;;;2.50;99.90;;;;;;5070736;28;20494;-77
2023/03/03 07:50:43;;;;;;;22.60;7.05;;;2.50;99.90;;;;;;5055458;28;20069;-77
2023/03/03 07:53:34;;;;;;;15.88;7.45;;;2.50;99.90;;;;;;5044441;28;20044;-76
2023/03/03 07:56:00;;;;;;;19.05;8.02;;;2.60;99.90;;;;;;5057346;28;20068;-77
2023/03/03 07:58:40;;;;;;;19.77;6.68;;;2.50;99.90;;;;;;5055453;28;20045;-77
2023/03/03 08:01:39;;;;;;;12.90;6.70;;;2.60;99.90;;;;;;5059449;28;20044;-76
2023/03/03 08:04:19;;;;;;;14.52;6.65;;;2.50;99.90;;;;;;5063039;28;20108;-75
2023/03/03 08:06:49;;;;;;;13.27;6.35;;;2.70;99.90;;;;;;5068895;28;20296;-76
2023/03/03 08:09:15;;;;;;;16.65;7.60;;;2.60;99.90;;;;;;5056545;28;20064;-76
2023/03/03 08:11:50;;;;;;;12.82;6.60;;;2.60;99.90;;;;;;5046440;28;20108;-77
2023/03/03 08:14:25;;;;;;;14.20;7.10;;;2.70;99.90;;;;;;5042516;28;20049;-78
2023/03/03 08:16:50;;;;;;;13.15;6.28;;;2.80;99.90;;;;;;5062298;28;20055;-76
2023/03/03 08:19:17;;;;;;;15.35;7.00;;;2.90;99.90;;;;;;5056896;28;20101;-77
2023/03/03 08:21:43;;;;;;;19.85;9.15;;;2.80;99.90;;;;;;5055362;28;20588;-77
2023/03/03 08:24:08;;;;;;;16.35;6.93;;;2.90;99.90;;;;;;5070137;28;20080;-77
2023/03/03 08:26:34;;;;;;;17.73;7.25;;;3.00;99.90;;;;;;5053748;28;20045;-77
2023/03/03 08:29:00;;;;;;;17.08;7.57;;;2.90;99.90;;;;;;5067234;28;20045;-76
2023/03/03 08:31:26;;;;;;;15.98;7.10;;;3.00;99.90;;;;;;5052636;28;20054;-75
2023/03/03 08:33:52;;;;;;;17.92;7.55;;;3.10;99.90;;;;;;5058343;28;20080;-76
2023/03/03 08:36:17;;;;;;;15.48;6.88;;;3.10;99.90;;;;;;5058516;28;20480;-75
2023/03/03 08:38:43;;;;;;;17.08;7.00;;;3.20;99.90;;;;;;5054277;28;20051;-76
2023/03/03 08:41:09;;;;;;;16.17;6.60;;;3.30;99.90;;;;;;5062168;28;20098;-77
2023/03/03 08:43:35;;;;;;;14.07;7.07;;;3.20;99.90;;;;;;5061554;28;20044;-75
2023/03/03 08:46:04;;;;;;;13.25;6.43;;;3.30;99.90;;;;;;5056843;28;20432;-76
2023/03/03 08:48:30;;;;;;;10.63;5.55;;;3.40;99.90;;;;;;5062036;28;20045;-76
2023/03/03 08:50:56;;;;;;;14.73;6.32;;;3.40;99.90;;;;;;5040432;28;20064;-75
2023/03/03 08:53:22;;;;;;;16.10;7.50;;;3.40;99.90;;;;;;5045606;28;20048;-75
2023/03/03 08:55:48;;;;;;;14.55;6.50;;;3.40;99.90;;;;;;5059750;28;20044;-75
2023/03/03 08:58:17;;;;;;;15.10;6.78;;;3.60;99.90;;;;;;5040427;28;20051;-75
2023/03/03 09:00:43;;;;;;;14.25;6.20;;;3.60;99.90;;;;;;5059035;28;20053;-75
2023/03/03 09:03:08;;;;;;;13.25;6.82;;;3.50;99.90;;;;;;5067507;28;20505;-75
2023/03/03 09:05:36;;;;;;;10.93;5.72;;;3.50;99.90;;;;;;5058450;28;20052;-75
2023/03/03 09:08:02;;;;;;;12.50;5.82;;;3.60;99.90;;;;;;5057805;28;20048;-74
2023/03/03 09:10:30;;;;;;;17.48;7.10;;;3.60;99.90;;;;;;5058110;28;20557;-74
2023/03/03 09:13:00;;;;;;;14.25;6.13;;;3.60;99.90;;;;;;5057701;28;20052;-73
2023/03/03 09:15:27;;;;;;;18.77;7.07;;;3.70;99.90;;;;;;5044283;28;20041;-74
2023/03/03 09:17:57;;;;;;;11.85;5.93;;;3.80;99.90;;;;;;5058579;28;20072;-74
2023/03/03 09:20:43;;;;;;;13.45;7.07;;;3.80;99.90;;;;;;5061041;28;20048;-74
2023/03/03 09:23:30;;;;;;;12.93;6.75;;;4.00;99.90;;;;;;5077662;28;20060;-75
2023/03/03 09:26:14;;;;;;;13.70;5.80;;;4.10;99.90;;;;;;5073504;28;20496;-75
2023/03/03 09:28:39;;;;;;;10.45;5.18;;;4.10;99.90;;;;;;5060024;28;20053;-75
2023/03/03 09:31:30;;;;;;;10.68;5.70;;;4.30;99.90;;;;;;5075435;28;20246;-75
2023/03/03 09:33:58;;;;;;;12.45;4.78;;;4.40;99.90;;;;;;5057297;28;20201;-75
2023/03/03 09:36:34;;;;;;;12.18;5.22;;;4.50;99.90;;;;;;5057445;28;20060;-75
2023/03/03 09:39:00;;;;;;;;;;;4.50;99.90;;;;;;5063101;28;20083;-75
2023/03/03 09:41:42;;;;;;;9.60;4.83;;;4.50;99.90;;;;;;5039292;28;19924;-75
2023/03/03 09:44:29;;;;;;;9.82;4.60;;;4.50;99.90;;;;;;5041778;28;20298;-75
2023/03/03 09:47:26;;;;;;;9.02;4.78;;;4.60;99.90;;;;;;5056033;28;20045;-74
2023/03/03 09:50:20;;;;;;;7.25;4.18;;;4.80;99.90;;;;;;5059653;28;20445;-75
2023/03/03 09:53:16;;;;;;;6.47;3.58;;;4.90;99.90;;;;;;5057339;28;20087;-75
2023/03/03 09:55:42;;;;;;;9.48;3.85;;;5.00;99.90;;;;;;5059778;28;20067;-75
2023/03/03 09:58:46;;;;;;;10.48;4.25;;;5.00;99.90;;;;;;5057483;28;20049;-75
2023/03/03 10:01:38;;;;;;;9.13;4.43;;;5.00;99.90;;;;;;5093075;28;20086;-75
2023/03/03 10:04:41;;;;;;;7.32;3.58;;;5.10;99.90;;;;;;5075122;28;20079;-75
2023/03/03 10:07:31;;;;;;;6.95;3.78;;;5.10;99.90;;;;;;5055169;28;20057;-75
2023/03/03 10:10:10;;;;;;;7.03;3.72;;;5.10;99.90;;;;;;5057748;28;20571;-75
2023/03/03 10:12:57;;;;;;;7.32;3.90;;;5.10;99.90;;;;;;5057303;28;20451;-75
2023/03/03 10:15:37;;;;;;;6.25;3.72;;;5.00;99.90;;;;;;5064546;28;20055;-74
2023/03/03 10:18:29;;;;;;;10.60;4.75;;;5.00;99.90;;;;;;5040733;28;20052;-75
2023/03/03 10:21:04;;;;;;;7.55;3.88;;;5.00;99.90;;;;;;5039787;28;20137;-75
2023/03/03 10:24:25;;;;;;;8.25;4.07;;;5.00;99.90;;;;;;5056171;28;20132;-76
2023/03/03 10:27:01;;;;;;;8.40;4.40;;;5.00;99.90;;;;;;5053224;28;20061;-75
2023/03/03 10:29:47;;;;;;;7.68;4.05;;;5.00;99.90;;;;;;5068594;28;20341;-75
2023/03/03 10:32:27;;;;;;;7.07;3.78;;;5.00;99.90;;;;;;5047668;28;20110;-75
2023/03/03 10:35:23;;;;;;;8.43;3.90;;;4.80;99.90;;;;;;5061847;28;20037;-76
2023/03/03 10:38:14;;;;;;;9.02;4.35;;;5.00;99.90;;;;;;5061830;28;20070;-75
2023/03/03 10:41:09;;;;;;;8.75;4.50;;;5.00;99.90;;;;;;5050571;28;20045;-75
2023/03/03 10:43:56;;;;;;;9.00;4.75;;;4.90;99.90;;;;;;5056911;28;20052;-75
2023/03/03 10:47:14;;;;;;;8.10;3.85;;;4.90;99.90;;;;;;5055614;28;20045;-76
2023/03/03 10:50:00;;;;;;;10.05;4.68;;;4.90;99.90;;;;;;5041551;28;20064;-76
2023/03/03 10:52:36;;;;;;;7.38;4.00;;;4.90;99.90;;;;;;5041095;28;20059;-77
2023/03/03 10:55:13;;;;;;;;;;;4.80;99.90;;;;;;5055519;28;20087;-76
2023/03/03 10:57:42;;;;;;;;;;;4.90;99.90;;;;;;5062365;28;19924;-76
2023/03/03 11:00:28;;;;;;;6.60;3.60;;;4.80;99.90;;;;;;5055865;28;19929;-76
2023/03/03 11:02:55;;;;;;;9.10;4.32;;;4.80;99.90;;;;;;5054166;28;20661;-76
2023/03/03 11:05:46;;;;;;;8.70;4.72;;;4.80;99.90;;;;;;5056908;28;20053;-76
2023/03/03 11:08:47;;;;;;;10.65;4.82;;;4.90;99.90;;;;;;5055527;28;20604;-75
2023/03/03 11:11:33;;;;;;;7.60;4.18;;;4.90;99.90;;;;;;5028447;28;20052;-75
2023/03/03 11:14:17;;;;;;;7.53;3.67;;;4.90;99.90;;;;;;5064407;28;20622;-75
2023/03/03 11:17:07;;;;;;;7.13;3.80;;;5.00;99.90;;;;;;5066407;28;20071;-75
2023/03/03 11:19:48;;;;;;;8.05;4.47;;;5.00;99.90;;;;;;5056498;28;20036;-75
2023/03/03 11:22:20;;;;;;;7.15;4.47;;;5.10;99.90;;;;;;5062730;28;20049;-77
2023/03/03 11:25:08;;;;;;;10.02;4.88;;;5.20;99.90;;;;;;5054665;28;20055;-76
2023/03/03 11:28:04;;;;;;;6.45;3.65;;;5.40;99.90;;;;;;5056469;28;20052;-75
2023/03/03 11:30:53;;;;;;;6.93;3.97;;;5.40;99.90;;;;;;5057573;28;20029;-75
2023/03/03 11:33:40;;;;;;;6.32;3.72;;;5.60;99.90;;;;;;5038208;28;20045;-75
2023/03/03 11:36:20;;;;;;;6.13;3.88;;;5.70;99.90;;;;;;5038755;28;20060;-75
2023/03/03 11:38:50;;;;;;;8.30;3.70;;;5.70;99.90;;;;;;5045945;28;20041;-75
2023/03/03 11:41:36;;;;;;;6.88;3.70;;;5.80;99.90;;;;;;5057718;28;20246;-75
2023/03/03 11:44:21;;;;;;;8.05;3.50;;;5.90;99.90;;;;;;5076581;28;20033;-76
2023/03/03 11:47:24;;;;;;;8.77;4.78;;;5.90;99.90;;;;;;5066000;28;20068;-74
2023/03/03 11:50:12;;;;;;;7.55;3.58;;;6.00;99.90;;;;;;5057239;28;20060;-76
2023/03/03 11:53:01;;;;;;;5.95;3.40;;;6.00;99.90;;;;;;5064114;28;20044;-75
2023/03/03 11:55:36;;;;;;;4.78;3.13;;;6.10;99.90;;;;;;5056519;28;20171;-75
2023/03/03 11:58:13;;;;;;;6.47;3.50;;;6.10;99.90;;;;;;5058625;28;20047;-76
2023/03/03 12:01:00;;;;;;;6.65;3.22;;;6.10;99.90;;;;;;5042909;28;20041;-76
2023/03/03 12:03:51;;;;;;;6.50;3.90;;;6.00;99.90;;;;;;5041667;28;20057;-74
2023/03/03 12:06:45;;;;;;;5.95;3.78;;;6.00;99.90;;;;;;5059026;28;20112;-75
2023/03/03 12:09:49;;;;;;;5.57;3.40;;;6.10;99.90;;;;;;5059508;28;20037;-75
2023/03/03 12:12:32;;;;;;;6.22;3.33;;;6.20;99.90;;;;;;5068045;28;20264;-75
2023/03/03 12:15:07;;;;;;;5.93;3.03;;;6.30;99.90;;;;;;5073092;28;20080;-74
2023/03/03 12:18:02;;;;;;;5.37;2.90;;;6.30;99.90;;;;;;5066163;28;20104;-74
2023/03/03 12:20:30;;;;;;;6.53;3.22;;;6.40;99.90;;;;;;5066832;28;20044;-75
2023/03/03 12:23:05;;;;;;;5.95;2.85;;;6.50;99.90;;;;;;5052946;28;20373;-76
2023/03/03 12:25:46;;;;;;;4.82;2.20;;;6.60;99.90;;;;;;5067218;28;20045;-75
2023/03/03 12:28:17;;;;;;;6.22;2.55;;;6.70;99.90;;;;;;5059843;28;20142;-75
2023/03/03 12:30:59;;;;;;;4.80;2.10;;;6.70;99.90;;;;;;5069861;28;20399;-75
2023/03/03 12:33:52;;;;;;;4.10;2.83;;;6.80;99.90;;;;;;5058145;28;20109;-75
2023/03/03 12:36:24;;;;;;;4.05;1.88;;;6.90;99.90;;;;;;5058532;28;20048;-75
2023/03/03 12:39:08;;;;;;;3.63;2.00;;;7.00;99.90;;;;;;5074038;28;20049;-75
2023/03/03 12:41:40;;;;;;;3.03;1.40;;;7.10;99.90;;;;;;5064835;28;20045;-75
2023/03/03 12:44:14;;;;;;;3.35;1.73;;;7.20;99.90;;;;;;5059274;28;20529;-74
2023/03/03 12:47:02;;;;;;;3.85;1.80;;;7.10;99.90;;;;;;5063294;28;20037;-74
2023/03/03 12:49:57;;;;;;;4.90;1.50;;;7.10;99.90;;;;;;5057846;28;20036;-76
2023/03/03 12:52:30;;;;;;;3.22;1.60;;;7.10;99.90;;;;;;5059496;28;20052;-75
2023/03/03 12:55:08;;;;;;;2.97;1.70;;;7.00;99.90;;;;;;5056954;28;20087;-74
2023/03/03 12:57:52;;;;;;;2.58;1.52;;;7.00;99.90;;;;;;5058532;28;20045;-75
2023/03/03 13:00:40;;;;;;;2.75;1.60;;;7.00;99.90;;;;;;5059018;28;20045;-75
2023/03/03 13:03:20;;;;;;;2.75;1.70;;;6.90;99.90;;;;;;5056949;28;20061;-74
2023/03/03 13:06:18;;;;;;;3.20;1.50;;;6.80;99.90;;;;;;5058970;28;20092;-75
2023/03/03 13:09:35;;;;;;;3.10;1.70;;;6.80;99.90;;;;;;5045927;28;20123;-74
2023/03/03 13:12:22;;;;;;;2.10;1.20;;;6.80;99.90;;;;;;5040213;28;20113;-74
2023/03/03 13:15:03;;;;;;;3.58;1.50;;;6.80;99.90;;;;;;5067756;28;20409;-76
2023/03/03 13:17:47;;;;;;;4.85;1.50;;;6.80;99.90;;;;;;5046131;28;20041;-74
2023/03/03 13:20:16;;;;;;;2.00;1.40;;;6.90;99.90;;;;;;5045289;28;20103;-75
2023/03/03 13:23:37;;;;;;;3.85;1.55;;;7.20;99.90;;;;;;5058024;28;20520;-75